Station: Hindmarsh Island  

  Atmospheric Gas Attenuation - ITU Rec 676-11   ----------------- dB/100km -----------------
Date Time Temp RH % AH g/m3 Dew Point Wind Direction Speed kph Gust kph Barometer mB Rainfall Since 9am 24GHz 47GHz 76GHz 122GHz 134GHz 241GHz
09/05 08:10 14.5 93 11.57 13.4 22 24 1030.2 2.6 25.9 31.4 52.8 138.9 140.3 484.9
09/05 08:00 14.4 92 11.37 13.1 20 24 1030.2 2.6 25.5 31.1 52.0 136.7 137.6 475.3
09/05 07:50 14.3 92 11.3 13 19 20 1030 2.6 25.3 31.0 51.7 136.0 136.7 472.3
09/05 07:40 14.3 92 11.3 13 20 22 1029.9 2.6 25.3 31.0 51.7 136.0 136.7 472.3
09/05 07:30 14.3 93 11.43 13.2 20 22 1029.8 2.6 25.6 31.2 52.3 137.6 138.6 478.9
09/05 07:20 14.3 93 11.43 13.2 20 20 1029.7 2.6 25.6 31.2 52.3 137.5 138.6 478.8
09/05 07:10 14.4 93 11.5 13.3 24 26 1029.6 2.6 25.7 31.3 52.5 138.2 139.4 481.7
09/05 07:00 14.3 93 11.43 13.2 17 20 1029.7 2.6 25.6 31.2 52.3 137.5 138.6 478.8
09/05 06:50 14.2 92 11.23 12.9 19 19 1029.6 2.6 25.2 30.9 51.5 135.3 135.8 469.2
09/05 06:40 14.2 91 11.11 12.8 19 22 1029.5 2.6 24.9 30.7 50.9 133.9 134.1 463.1
09/05 06:30 14.4 91 11.25 13 19 22 1029.5 2.4 25.2 30.8 51.4 135.2 135.7 469.0
09/05 06:20 14.3 91 11.18 12.9 20 22 1029.4 2.4 25.1 30.7 51.2 134.5 134.9 466.0
09/05 06:10 14.3 91 11.18 12.9 22 24 1029.3 2.4 25.1 30.7 51.2 134.5 134.9 466.0
09/05 06:00 14.3 91 11.18 12.9 20 26 1029.3 2.4 25.1 30.7 51.2 134.5 134.9 466.0
09/05 05:50 14.2 91 11.11 12.8 20 24 1029.2 2.4 24.9 30.6 50.9 133.9 134.0 463.0
09/05 05:40 14.2 92 11.23 12.9 19 20 1029.2 2.4 25.2 30.9 51.4 135.3 135.8 469.1
09/05 05:30 14.2 92 11.23 12.9 19 22 1029.1 2.4 25.2 30.9 51.4 135.3 135.8 469.0
09/05 05:20 14.2 92 11.23 12.9 20 22 1029.1 2.4 25.2 30.9 51.4 135.3 135.8 469.0
09/05 05:10 14.4 93 11.5 13.3 20 20 1029 2.4 25.7 31.3 52.5 138.1 139.3 481.5
09/05 05:00 14.2 92 11.23 12.9 20 28 1028.9 2.4 25.2 30.8 51.4 135.3 135.8 469.0
09/05 04:50 14.2 93 11.36 13.1 19 19 1028.8 2.4 25.5 31.1 52.0 136.8 137.6 475.5
09/05 04:40 14.2 93 11.36 13.1 17 19 1028.8 2.4 25.5 31.1 52.0 136.8 137.6 475.5
09/05 04:30 14.1 94 11.41 13.1 20 24 1028.8 2.4 25.6 31.2 52.3 137.6 138.5 478.7
09/05 04:20 14.2 95 11.6 13.4 17 22 1028.8 2.4 26.0 31.5 53.1 139.6 141.2 487.8
09/05 04:10 14.1 95 11.53 13.3 13 15 1028.8 2.4 25.8 31.4 52.8 139.0 140.3 484.9
09/05 04:00 14 94 11.34 13.1 19 22 1028.8 2.4 25.4 31.1 52.0 136.9 137.7 475.8
09/05 03:50 14.2 94 11.48 13.2 22 24 1028.8 2.4 25.7 31.3 52.5 138.2 139.4 481.7
09/05 03:40 14.2 94 11.48 13.2 19 20 1028.9 2.4 25.7 31.3 52.5 138.2 139.4 481.7
09/05 03:30 14.1 94 11.41 13.1 19 20 1029 2.4 25.6 31.2 52.3 137.6 138.6 478.8
09/05 03:20 14.1 94 11.41 13.1 20 20 1029 2.4 25.6 31.2 52.3 137.6 138.6 478.8
09/05 03:10 14.1 94 11.41 13.1 20 24 1029 2.4 25.6 31.2 52.3 137.6 138.6 478.8
09/05 03:00 14 94 11.34 13.1 20 24 1029.1 2.4 25.4 31.1 52.1 136.9 137.7 475.9
09/05 02:50 14 95 11.46 13.2 20 24 1029 2.4 25.7 31.3 52.6 138.4 139.5 482.0
09/05 02:40 14.1 95 11.53 13.3 19 22 1029 2.4 25.8 31.4 52.8 139.0 140.3 484.9
09/05 02:30 14 95 11.46 13.2 17 22 1029.1 2.4 25.7 31.3 52.6 138.4 139.5 482.0
09/05 02:20 14 95 11.46 13.2 13 13 1029.1 2.4 25.7 31.3 52.6 138.4 139.5 482.0
09/05 02:10 14 95 11.46 13.2 11 13 1029.2 2.4 25.7 31.3 52.6 138.4 139.5 482.0
09/05 02:00 13.9 95 11.39 13.1 13 17 1029.2 2.2 25.5 31.3 52.4 137.7 138.7 479.1
09/05 01:50 13.9 94 11.27 13 17 19 1029.3 2.2 25.3 31.0 51.8 136.3 136.9 473.0
09/05 01:40 14.2 94 11.48 13.2 26 28 1029.1 2.2 25.7 31.3 52.6 138.2 139.4 481.8
09/05 01:30 14 94 11.34 13.1 17 24 1029.4 2.2 25.4 31.1 52.1 137.0 137.8 476.0
09/05 01:20 14 94 11.34 13.1 20 24 1029.4 2.2 25.4 31.1 52.1 137.0 137.8 476.0
09/05 01:10 13.9 93 11.15 12.8 19 20 1029.5 2.2 25.0 30.8 51.3 134.9 135.2 466.9
09/05 01:00 13.9 93 11.15 12.8 20 26 1029.5 2.2 25.0 30.8 51.3 134.9 135.2 466.9
09/05 00:50 14.2 92 11.23 12.9 17 19 1029.6 1.8 25.2 30.9 51.5 135.3 135.8 469.2
09/05 00:40 13.9 92 11.03 12.6 11 13 1029.6 1.8 24.8 30.6 50.8 133.5 133.5 460.9
09/05 00:30 13.7 92 10.89 12.4 15 20 1029.7 1.8 24.5 30.5 50.3 132.2 131.8 455.0
09/05 00:20 13.9 93 11.15 12.8 22 24 1029.7 1.8 25.0 30.8 51.3 134.9 135.2 467.0
09/05 00:10 14.1 93 11.29 13 26 30 1029.6 1.8 25.3 31.0 51.8 136.2 136.9 472.9
09/05 00:00 14.2 93 11.36 13.1 17 28 1029.6 1.8 25.4 31.1 52.0 136.9 137.7 475.8
08/05 23:50 13.8 93 11.08 12.7 13 15 1029.6 1.8 24.9 30.8 51.1 134.3 134.4 464.0
08/05 23:40 13.8 94 11.2 12.9 17 19 1029.8 1.8 25.1 31.0 51.6 135.7 136.1 470.2
08/05 23:30 13.8 94 11.2 12.9 22 30 1029.8 1.6 25.1 31.0 51.6 135.7 136.1 470.2
08/05 23:20 13.9 94 11.27 13 19 19 1029.9 1.6 25.3 31.1 51.9 136.4 137.0 473.2
08/05 23:10 13.9 94 11.27 13 17 19 1030 1.6 25.3 31.1 51.9 136.4 137.0 473.2
08/05 23:00 14 94 11.34 13.1 26 30 1030 1.6 25.4 31.2 52.1 137.0 137.8 476.2
08/05 22:50 14.3 92 11.3 13 22 24 1030 1.6 25.3 31.0 51.7 136.0 136.7 472.3
08/05 22:40 14.2 91 11.11 12.8 19 20 1030.1 1.6 24.9 30.7 51.0 134.0 134.1 463.3
08/05 22:30 14.1 92 11.17 12.8 20 26 1030.1 1.6 25.0 30.8 51.3 134.9 135.2 466.9
08/05 22:20 14.2 93 11.36 13.1 17 17 1030.2 1.6 25.4 31.1 52.1 137.0 137.8 476.0
08/05 22:10 14.1 93 11.29 13 19 20 1030.2 1.6 25.3 31.0 51.8 136.3 136.9 473.1
08/05 22:00 14.1 92 11.17 12.8 22 28 1030.3 1.6 25.0 30.8 51.3 134.9 135.2 467.0
08/05 21:50 13.9 92 11.03 12.6 24 28 1030.2 1.6 24.8 30.7 50.8 133.6 133.5 461.1
08/05 21:40 14.1 93 11.29 13 24 26 1030.2 1.6 25.3 31.0 51.8 136.3 136.9 473.1
08/05 21:30 13.9 93 11.15 12.8 20 30 1030.2 1.6 25.0 30.9 51.3 135.0 135.3 467.2
08/05 21:20 14.1 94 11.41 13.1 17 17 1030.2 1.6 25.6 31.3 52.4 137.7 138.7 479.2
08/05 21:10 14 93 11.22 12.9 22 24 1030.1 1.4 25.2 31.0 51.6 135.6 136.1 470.1
08/05 21:00 14 93 11.22 12.9 20 28 1030.2 1.4 25.2 31.0 51.6 135.6 136.1 470.1
08/05 20:50 13.9 92 11.03 12.6 30 32 1030.1 1.4 24.8 30.6 50.8 133.6 133.5 461.1
08/05 20:40 14.4 89 11 12.6 30 32 1030 1.2 24.7 30.4 50.3 132.3 132.2 456.5
08/05 20:30 14.2 90 10.99 12.6 24 32 1030 1.2 24.7 30.5 50.4 132.6 132.4 457.2
08/05 20:20 14.1 89 10.8 12.3 32 33 1029.9 1.2 24.3 30.2 49.7 130.5 129.8 448.2
08/05 20:10 14.6 89 11.14 12.8 30 33 1029.9 1.2 25.0 30.6 50.8 133.6 133.8 462.3
08/05 20:00 14.9 81 10.32 11.7 24 30 1029.9 1.2 23.2 29.1 47.1 123.7 121.7 420.0
08/05 19:50 14.6 80 10.01 11.2 24 28 1029.9 1.2 22.5 28.6 45.9 120.6 117.8 406.5
08/05 19:40 14.6 82 10.26 11.6 24 26 1029.9 1.2 23.1 29.1 47.0 123.5 121.3 418.6
08/05 19:30 14.5 83 10.32 11.7 28 35 1029.8 1.2 23.2 29.2 47.3 124.3 122.3 422.1
08/05 19:20 14.4 82 10.14 11.4 26 28 1029.8 1.2 22.8 28.9 46.6 122.4 120.0 413.8
08/05 19:10 14.3 83 10.2 11.5 32 35 1029.7 1.2 23.0 29.0 46.9 123.2 120.9 417.2
08/05 19:00 14.3 87 10.69 12.2 30 35 1029.7 1.2 24.0 29.9 49.0 128.9 127.9 441.5
08/05 18:50 14 91 10.98 12.6 32 35 1029.6 1.2 24.6 30.5 50.5 132.7 132.6 457.7
08/05 18:40 14 93 11.22 12.9 22 24 1029.7 1.2 25.2 30.9 51.6 135.6 136.0 470.0
08/05 18:30 13.9 93 11.15 12.8 28 33 1029.7 1.2 25.0 30.8 51.3 134.9 135.2 467.0
08/05 18:20 13.7 94 11.13 12.8 32 35 1029.7 1.2 25.0 30.9 51.4 135.0 135.3 467.2
08/05 18:10 13.8 94 11.2 12.9 26 28 1029.6 1.2 25.1 31.0 51.6 135.7 136.1 470.1
08/05 18:00 13.9 94 11.27 13 32 35 1029.6 1.2 25.3 31.1 51.8 136.3 136.9 473.1
08/05 17:50 14.2 94 11.48 13.2 30 32 1029.5 1 25.7 31.3 52.6 138.3 139.5 481.9
08/05 17:40 14.2 94 11.48 13.2 26 28 1029.4 1 25.7 31.3 52.6 138.3 139.5 481.9
08/05 17:30 13.8 94 11.2 12.9 24 32 1029.4 1 25.1 31.0 51.6 135.7 136.1 470.1
08/05 17:20 14 94 11.34 13.1 30 35 1029.4 1 25.4 31.1 52.1 137.0 137.8 476.0
08/05 17:10 14.1 93 11.29 13 28 30 1029.4 0.6 25.3 31.0 51.8 136.2 136.9 472.8
08/05 17:00 14.1 91 11.04 12.7 30 39 1029.3 0.2 24.8 30.6 50.7 133.2 133.2 460.1
08/05 16:50 14.2 92 11.23 12.9 26 30 1029.3 0 25.2 30.9 51.4 135.3 135.8 469.1
08/05 16:40 14.5 91 11.32 13 32 37 1029.2 0 25.3 30.9 51.6 135.8 136.6 471.8
08/05 16:30 14.5 90 11.19 12.9 24 28 1029.3 0 25.1 30.7 51.1 134.3 134.7 465.3
08/05 16:20 14.6 88 11.01 12.6 24 28 1029.4 0 24.7 30.3 50.2 132.0 131.9 455.6
08/05 16:10 15.7 80 10.7 12.3 35 43 1029.1 0 23.9 29.4 48.2 126.6 125.6 433.9
08/05 16:00 14.9 84 10.71 12.2 24 32 1029.2 0 24.0 29.7 48.7 128.0 127.1 438.9
08/05 15:50 14.9 82 10.45 11.9 32 35 1029.1 0 23.5 29.2 47.6 125.1 123.4 426.1
08/05 15:40 15.4 82 10.77 12.3 26 30 1029.1 0 24.1 29.6 48.7 127.9 127.1 439.0

Last Refresh: 09-May-2026 08:13:00

Bureau of Meteorology